createdAt,value
2018-12-23T00:00:34.670Z,21.9
2018-12-23T00:01:43.868Z,21.72
2018-12-23T00:02:53.586Z,21.72
2018-12-23T00:04:03.282Z,21.83
2018-12-23T00:05:16.451Z,21.79
2018-12-23T00:06:25.172Z,21.86
2018-12-23T00:07:34.899Z,21.82
2018-12-23T00:08:44.631Z,21.79
2018-12-23T00:09:54.068Z,21.74
2018-12-23T00:11:03.514Z,21.9
2018-12-23T00:12:13.461Z,21.8
2018-12-23T00:13:23.184Z,21.9
2018-12-23T00:14:32.654Z,21.77
2018-12-23T00:15:41.617Z,21.77
2018-12-23T00:16:51.319Z,21.86
2018-12-23T00:18:00.789Z,21.88
2018-12-23T00:19:10.250Z,21.9
2018-12-23T00:20:19.693Z,21.9
2018-12-23T00:21:28.645Z,21.88
2018-12-23T00:22:38.093Z,21.82
2018-12-23T00:23:46.782Z,21.77
2018-12-23T00:24:56.470Z,21.74
2018-12-23T00:26:05.419Z,21.74
2018-12-23T00:27:14.433Z,21.79
2018-12-23T00:28:24.118Z,21.77
2018-12-23T00:29:33.579Z,21.79
2018-12-23T00:30:42.765Z,21.79
2018-12-23T00:31:52.002Z,21.75
2018-12-23T00:33:01.705Z,21.88
2018-12-23T00:34:11.211Z,21.88
2018-12-23T00:35:25.277Z,21.9
2018-12-23T00:36:34.728Z,21.9
2018-12-23T00:37:43.704Z,21.84
2018-12-23T00:38:53.464Z,21.84
2018-12-23T00:40:02.691Z,21.88
2018-12-23T00:41:11.947Z,21.9
2018-12-23T00:42:21.703Z,21.83
2018-12-23T00:43:30.636Z,21.88
2018-12-23T00:44:40.067Z,21.88
2018-12-23T00:45:49.272Z,21.84
2018-12-23T00:46:58.944Z,21.86
2018-12-23T00:48:08.126Z,21.83
2018-12-23T00:49:17.562Z,21.84
2018-12-23T00:50:27.266Z,21.8
2018-12-23T00:51:36.506Z,21.77
2018-12-23T00:52:46.070Z,21.82
2018-12-23T00:53:55.278Z,21.75
2018-12-23T00:55:04.479Z,21.83
2018-12-23T00:56:13.665Z,21.88
2018-12-23T00:57:23.986Z,21.86
2018-12-23T00:58:33.194Z,21.84
2018-12-23T00:59:42.398Z,21.75
2018-12-23T01:00:51.320Z,21.8
2018-12-23T01:02:00.560Z,21.83
2018-12-23T01:03:09.536Z,21.75
2018-12-23T01:04:19.218Z,21.79
2018-12-23T01:05:33.652Z,21.77
2018-12-23T01:06:43.088Z,21.75
2018-12-23T01:07:52.525Z,21.77
2018-12-23T01:09:01.444Z,21.74
2018-12-23T01:10:11.265Z,21.77
2018-12-23T01:11:20.712Z,21.84
2018-12-23T01:12:30.393Z,21.8
2018-12-23T01:13:39.331Z,21.74
2018-12-23T01:14:49.048Z,21.86
2018-12-23T01:15:58.481Z,21.79
2018-12-23T01:17:07.958Z,21.74
2018-12-23T01:18:17.418Z,21.79
2018-12-23T01:19:26.634Z,21.72
2018-12-23T01:20:35.835Z,21.83
2018-12-23T01:21:45.149Z,21.86
2018-12-23T01:22:54.352Z,21.86
2018-12-23T01:24:03.811Z,21.84
2018-12-23T01:25:13.279Z,21.79
2018-12-23T01:26:22.963Z,21.82
2018-12-23T01:27:32.395Z,21.72
2018-12-23T01:28:41.586Z,21.72
2018-12-23T01:29:51.038Z,21.84
2018-12-23T01:31:00.220Z,21.77
2018-12-23T01:32:09.658Z,21.75
2018-12-23T01:33:19.095Z,21.77
2018-12-23T01:34:36.851Z,21.8
2018-12-23T01:35:46.438Z,21.79
2018-12-23T01:36:55.627Z,21.86
2018-12-23T01:38:05.086Z,21.75
2018-12-23T01:39:14.279Z,21.82
2018-12-23T01:40:23.958Z,21.83
2018-12-23T01:41:33.422Z,21.8
2018-12-23T01:42:42.125Z,21.79
2018-12-23T01:43:51.291Z,21.83
2018-12-23T01:45:00.974Z,21.79
2018-12-23T01:46:10.422Z,21.75
2018-12-23T01:47:20.096Z,21.83
2018-12-23T01:48:29.263Z,21.79
2018-12-23T01:49:38.687Z,21.82
2018-12-23T01:50:47.373Z,21.79
2018-12-23T01:51:56.574Z,21.82
2018-12-23T01:53:05.533Z,21.82
2018-12-23T01:54:15.228Z,21.8
2018-12-23T01:55:24.658Z,21.8
2018-12-23T01:56:34.347Z,21.82
2018-12-23T01:57:44.402Z,21.79
2018-12-23T01:58:53.580Z,21.77
2018-12-23T02:00:02.314Z,21.72
2018-12-23T02:01:11.499Z,21.79
2018-12-23T02:02:20.450Z,21.86
2018-12-23T02:03:29.530Z,21.84
2018-12-23T02:04:39.077Z,21.77
2018-12-23T02:05:50.734Z,21.79
2018-12-23T02:07:00.180Z,21.79
2018-12-23T02:08:09.382Z,21.82
2018-12-23T02:09:19.067Z,21.83
2018-12-23T02:10:27.999Z,21.77
2018-12-23T02:11:37.431Z,21.88
2018-12-23T02:12:46.879Z,21.79
2018-12-23T02:13:56.333Z,21.82
2018-12-23T02:15:05.529Z,21.79
2018-12-23T02:16:15.267Z,21.8
2018-12-23T02:17:24.210Z,21.83
2018-12-23T02:18:34.279Z,21.83
2018-12-23T02:19:43.717Z,21.8
2018-12-23T02:20:53.409Z,21.8
2018-12-23T02:22:02.847Z,21.77
2018-12-23T02:23:12.535Z,21.75
2018-12-23T02:24:22.046Z,21.79
2018-12-23T02:25:32.006Z,21.8
2018-12-23T02:26:41.187Z,21.79
2018-12-23T02:27:50.377Z,21.8
2018-12-23T02:28:59.582Z,21.77
2018-12-23T02:30:09.281Z,21.82
2018-12-23T02:31:18.729Z,21.75
2018-12-23T02:32:28.443Z,21.82
2018-12-23T02:33:38.159Z,21.72
2018-12-23T02:34:47.911Z,21.82
2018-12-23T02:36:00.714Z,21.79
2018-12-23T02:37:10.166Z,21.75
2018-12-23T02:38:19.106Z,21.77
2018-12-23T02:39:28.056Z,21.79
2018-12-23T02:40:37.492Z,21.77
2018-12-23T02:41:46.919Z,21.77
2018-12-23T02:42:56.358Z,21.82
2018-12-23T02:44:06.307Z,21.77
2018-12-23T02:45:15.769Z,21.82
2018-12-23T02:46:25.200Z,21.79
2018-12-23T02:47:34.894Z,21.8
2018-12-23T02:48:44.338Z,21.8
2018-12-23T02:49:53.770Z,21.83
2018-12-23T02:51:02.993Z,21.74
2018-12-23T02:52:12.181Z,21.79
2018-12-23T02:53:21.897Z,21.77
2018-12-23T02:54:31.836Z,21.8
2018-12-23T02:55:41.294Z,21.72
2018-12-23T02:56:50.747Z,21.77
2018-12-23T02:57:59.925Z,21.75
2018-12-23T02:59:09.645Z,21.77
2018-12-23T03:00:19.098Z,21.75
2018-12-23T03:01:28.536Z,21.77
2018-12-23T03:02:37.997Z,21.77
2018-12-23T03:03:47.435Z,21.77
2018-12-23T03:04:56.650Z,21.77
2018-12-23T03:06:11.123Z,21.74
2018-12-23T03:07:20.594Z,21.74
2018-12-23T03:08:30.300Z,21.79
2018-12-23T03:09:40.262Z,21.71
2018-12-23T03:10:49.476Z,21.77
2018-12-23T03:11:58.916Z,21.79
2018-12-23T03:13:08.609Z,21.71
2018-12-23T03:14:18.043Z,21.77
2018-12-23T03:15:27.737Z,21.77
2018-12-23T03:16:36.958Z,21.71
2018-12-23T03:17:46.505Z,21.71
2018-12-23T03:18:55.964Z,21.77
2018-12-23T03:20:05.423Z,21.72
2018-12-23T03:21:14.887Z,21.67
2018-12-23T03:22:24.338Z,21.8
2018-12-23T03:23:34.312Z,21.77
2018-12-23T03:24:43.759Z,21.83
2018-12-23T03:25:53.451Z,21.77
2018-12-23T03:27:02.673Z,21.75
2018-12-23T03:28:12.126Z,21.79
2018-12-23T03:29:21.818Z,21.75
2018-12-23T03:30:31.521Z,21.77
2018-12-23T03:31:41.536Z,21.79
2018-12-23T03:32:51.000Z,21.77
2018-12-23T03:34:00.954Z,21.79
2018-12-23T03:35:10.435Z,21.74
2018-12-23T03:36:20.170Z,21.75
2018-12-23T03:37:29.863Z,21.79
2018-12-23T03:38:39.322Z,21.79
2018-12-23T03:39:48.268Z,21.77
2018-12-23T03:40:57.958Z,21.77
2018-12-23T03:42:07.660Z,21.75
2018-12-23T03:43:16.606Z,21.77
2018-12-23T03:44:26.053Z,21.71
2018-12-23T03:45:35.511Z,21.77
2018-12-23T03:46:44.950Z,21.72
2018-12-23T03:47:54.139Z,21.74
2018-12-23T03:49:03.816Z,21.72
2018-12-23T03:50:15.141Z,21.72
2018-12-23T03:51:24.599Z,21.71
2018-12-23T03:52:33.791Z,21.71
2018-12-23T03:53:43.472Z,21.69
2018-12-23T03:54:52.439Z,21.75
2018-12-23T03:56:01.882Z,21.71
2018-12-23T03:57:11.072Z,21.77
2018-12-23T03:58:20.252Z,21.77
2018-12-23T03:59:29.451Z,21.74
2018-12-23T04:00:38.658Z,21.74
2018-12-23T04:01:48.344Z,21.72
2018-12-23T04:02:57.521Z,21.72
2018-12-23T04:04:06.703Z,21.71
2018-12-23T04:05:15.894Z,21.74
2018-12-23T04:06:29.626Z,21.68
2018-12-23T04:07:39.318Z,21.79
2018-12-23T04:08:48.310Z,21.68
2018-12-23T04:09:57.754Z,21.77
2018-12-23T04:11:06.709Z,21.79
2018-12-23T04:12:16.153Z,21.74
2018-12-23T04:13:25.859Z,21.75
2018-12-23T04:14:35.588Z,21.69
2018-12-23T04:15:45.540Z,21.77
2018-12-23T04:16:55.230Z,21.75
2018-12-23T04:18:04.979Z,21.71
2018-12-23T04:19:14.162Z,21.74
2018-12-23T04:20:24.104Z,21.71
2018-12-23T04:21:33.539Z,21.72
2018-12-23T04:22:43.238Z,21.74
2018-12-23T04:23:52.159Z,21.69
2018-12-23T04:25:01.587Z,21.75
2018-12-23T04:26:10.527Z,21.74
2018-12-23T04:27:20.211Z,21.75
2018-12-23T04:28:29.679Z,21.74
2018-12-23T04:29:39.112Z,21.75
2018-12-23T04:30:48.293Z,21.74
2018-12-23T04:31:57.735Z,21.74
2018-12-23T04:33:07.429Z,21.75
2018-12-23T04:34:16.865Z,21.79
2018-12-23T04:35:26.308Z,21.72
2018-12-23T04:36:39.246Z,21.75
2018-12-23T04:37:48.201Z,21.72
2018-12-23T04:38:57.894Z,21.69
2018-12-23T04:40:07.595Z,21.72
2018-12-23T04:41:17.017Z,21.74
2018-12-23T04:42:26.466Z,21.75
2018-12-23T04:43:35.904Z,21.72
2018-12-23T04:44:45.371Z,21.8
2018-12-23T04:45:54.573Z,21.72
2018-12-23T04:47:04.278Z,21.72
2018-12-23T04:48:13.209Z,21.75
2018-12-23T04:49:22.395Z,21.75
2018-12-23T04:50:32.079Z,21.75
2018-12-23T04:51:41.647Z,21.74
2018-12-23T04:52:50.827Z,21.74
2018-12-23T04:54:00.259Z,21.74
2018-12-23T04:55:09.470Z,21.77
2018-12-23T04:56:18.465Z,21.74
2018-12-23T04:57:28.169Z,21.74
2018-12-23T04:58:37.863Z,21.77
2018-12-23T04:59:47.793Z,21.69
2018-12-23T05:00:56.988Z,21.75
2018-12-23T05:02:06.186Z,21.75
2018-12-23T05:03:15.886Z,21.74
2018-12-23T05:04:25.070Z,21.72
2018-12-23T05:05:34.790Z,21.69
2018-12-23T05:06:48.470Z,21.74
2018-12-23T05:07:57.428Z,21.77
2018-12-23T05:09:06.631Z,21.75
2018-12-23T05:10:15.810Z,21.71
2018-12-23T05:11:25.513Z,21.75
2018-12-23T05:12:34.699Z,21.75
2018-12-23T05:13:44.385Z,21.71
2018-12-23T05:14:53.319Z,21.68
2018-12-23T05:16:02.509Z,21.74
2018-12-23T05:17:12.045Z,21.64
2018-12-23T05:18:21.481Z,21.74
2018-12-23T05:19:30.925Z,21.59
2018-12-23T05:20:40.350Z,21.68
2018-12-23T05:21:50.025Z,21.72
2018-12-23T05:22:59.531Z,21.75
2018-12-23T05:24:08.967Z,21.75
2018-12-23T05:25:17.916Z,21.74
2018-12-23T05:26:27.370Z,21.62
2018-12-23T05:27:36.538Z,21.75
2018-12-23T05:28:45.998Z,21.75
2018-12-23T05:29:55.202Z,21.67
2018-12-23T05:31:04.401Z,21.69
2018-12-23T05:32:14.071Z,21.69
2018-12-23T05:33:24.029Z,21.74
2018-12-23T05:34:33.239Z,21.72
2018-12-23T05:35:42.658Z,21.74
2018-12-23T05:36:57.102Z,21.69
2018-12-23T05:38:07.032Z,21.72
2018-12-23T05:39:16.211Z,21.74
2018-12-23T05:40:25.879Z,21.69
2018-12-23T05:41:35.345Z,21.71
2018-12-23T05:42:45.307Z,21.74
2018-12-23T05:43:55.228Z,21.69
2018-12-23T05:45:04.962Z,21.69
2018-12-23T05:46:14.662Z,21.69
2018-12-23T05:47:23.853Z,21.75
2018-12-23T05:48:33.329Z,21.67
2018-12-23T05:49:42.833Z,21.69
2018-12-23T05:50:52.509Z,21.74
2018-12-23T05:52:01.716Z,21.72
2018-12-23T05:53:10.890Z,21.67
2018-12-23T05:54:20.609Z,21.72
2018-12-23T05:55:30.323Z,21.75
2018-12-23T05:56:39.756Z,21.71
2018-12-23T05:57:48.695Z,21.77
2018-12-23T05:58:58.142Z,21.77
2018-12-23T06:00:07.833Z,21.74
2018-12-23T06:01:17.267Z,21.71
2018-12-23T06:02:26.208Z,21.72
2018-12-23T06:03:35.394Z,21.69
2018-12-23T06:04:45.057Z,21.77
2018-12-23T06:05:54.489Z,21.74
2018-12-23T06:07:05.895Z,21.74
2018-12-23T06:08:15.333Z,21.74
2018-12-23T06:09:24.524Z,21.74
2018-12-23T06:10:33.710Z,21.72
2018-12-23T06:11:43.163Z,21.71
2018-12-23T06:12:52.615Z,21.74
2018-12-23T06:14:01.912Z,21.71
2018-12-23T06:15:11.357Z,21.79
2018-12-23T06:16:20.819Z,21.71
2018-12-23T06:17:30.268Z,21.71
2018-12-23T06:18:39.440Z,21.74
2018-12-23T06:19:48.629Z,21.74
2018-12-23T06:20:57.922Z,21.68
2018-12-23T06:22:07.363Z,21.74
2018-12-23T06:23:17.234Z,21.64
2018-12-23T06:24:27.122Z,21.69
2018-12-23T06:25:36.815Z,21.68
2018-12-23T06:26:46.508Z,21.69
2018-12-23T06:27:55.433Z,21.72
2018-12-23T06:29:04.626Z,21.71
2018-12-23T06:30:14.134Z,21.64
2018-12-23T06:31:23.585Z,21.64
2018-12-23T06:32:33.012Z,21.8
2018-12-23T06:33:42.718Z,21.69
2018-12-23T06:34:52.149Z,21.75
2018-12-23T06:36:01.837Z,21.71
2018-12-23T06:37:14.952Z,21.74
2018-12-23T06:38:24.151Z,21.74
2018-12-23T06:39:33.619Z,21.69
2018-12-23T06:40:43.411Z,21.68
2018-12-23T06:41:52.844Z,21.61
2018-12-23T06:43:02.266Z,21.67
2018-12-23T06:44:11.438Z,21.68
2018-12-23T06:45:20.885Z,21.74
2018-12-23T06:46:30.070Z,21.74
2018-12-23T06:47:39.874Z,21.74
2018-12-23T06:48:49.325Z,21.69
2018-12-23T06:49:59.013Z,21.71
2018-12-23T06:51:08.028Z,21.77
2018-12-23T06:52:17.460Z,21.68
2018-12-23T06:53:26.889Z,21.71
2018-12-23T06:54:35.825Z,21.69
2018-12-23T06:55:45.257Z,21.71
2018-12-23T06:56:54.432Z,21.72
2018-12-23T06:58:04.126Z,21.71
2018-12-23T06:59:13.799Z,21.71
2018-12-23T07:00:23.507Z,21.71
2018-12-23T07:01:33.203Z,21.74
2018-12-23T07:02:42.385Z,21.65
2018-12-23T07:03:51.570Z,21.72
2018-12-23T07:05:00.750Z,21.71
2018-12-23T07:06:10.443Z,21.71
2018-12-23T07:07:23.080Z,21.71
2018-12-23T07:08:32.762Z,21.68
2018-12-23T07:09:41.950Z,21.74
2018-12-23T07:10:51.167Z,21.71
2018-12-23T07:12:00.843Z,21.72
2018-12-23T07:13:10.334Z,21.69
2018-12-23T07:14:19.789Z,21.71
2018-12-23T07:15:29.517Z,21.67
2018-12-23T07:16:39.208Z,21.71
2018-12-23T07:17:48.900Z,21.74
2018-12-23T07:18:58.839Z,21.64
2018-12-23T07:20:08.045Z,21.72
2018-12-23T07:21:17.721Z,21.71
2018-12-23T07:22:27.168Z,21.71
2018-12-23T07:23:36.613Z,21.74
2018-12-23T07:24:46.382Z,21.79
2018-12-23T07:25:55.570Z,21.79
2018-12-23T07:27:05.243Z,21.75
2018-12-23T07:28:14.936Z,21.79
2018-12-23T07:29:24.127Z,21.74
2018-12-23T07:30:33.866Z,21.69
2018-12-23T07:31:43.802Z,21.75
2018-12-23T07:32:53.253Z,21.74
2018-12-23T07:34:01.941Z,21.68
2018-12-23T07:35:11.384Z,21.71
2018-12-23T07:36:20.578Z,21.77
2018-12-23T07:37:32.325Z,21.72
2018-12-23T07:38:42.003Z,21.64
2018-12-23T07:39:51.693Z,21.61
2018-12-23T07:41:00.885Z,21.67
2018-12-23T07:42:10.317Z,21.68
2018-12-23T07:43:19.741Z,21.71
2018-12-23T07:44:29.193Z,21.71
2018-12-23T07:45:38.619Z,21.72
2018-12-23T07:46:47.843Z,21.65
2018-12-23T07:47:57.528Z,21.71
2018-12-23T07:49:06.473Z,21.67
2018-12-23T07:50:15.391Z,21.65
2018-12-23T07:51:24.818Z,21.68
2018-12-23T07:52:34.249Z,21.68
2018-12-23T07:53:43.948Z,21.68
2018-12-23T07:54:53.123Z,21.67
2018-12-23T07:56:03.768Z,21.64
2018-12-23T07:57:13.202Z,21.79
2018-12-23T07:58:22.143Z,21.69
2018-12-23T07:59:31.825Z,21.71
2018-12-23T08:00:41.341Z,21.71
2018-12-23T08:01:50.298Z,21.69
2018-12-23T08:02:59.748Z,21.67
2018-12-23T08:04:08.932Z,21.68
2018-12-23T08:05:17.862Z,21.74
2018-12-23T08:06:27.568Z,21.68
2018-12-23T08:07:40.878Z,21.75
2018-12-23T08:08:50.308Z,21.65
2018-12-23T08:09:59.754Z,21.68
2018-12-23T08:11:09.188Z,21.65
2018-12-23T08:12:18.694Z,21.69
2018-12-23T08:13:28.161Z,21.74
2018-12-23T08:14:37.226Z,21.74
2018-12-23T08:15:46.140Z,21.68
2018-12-23T08:16:55.810Z,21.74
2018-12-23T08:18:05.893Z,21.69
2018-12-23T08:19:15.721Z,21.72
2018-12-23T08:20:25.408Z,21.67
2018-12-23T08:21:35.115Z,21.75
2018-12-23T08:22:44.559Z,21.65
2018-12-23T08:23:54.241Z,21.68
2018-12-23T08:25:03.777Z,21.71
2018-12-23T08:26:12.950Z,21.68
2018-12-23T08:27:22.167Z,21.71
2018-12-23T08:28:31.602Z,21.74
2018-12-23T08:29:41.354Z,21.72
2018-12-23T08:30:51.298Z,21.67
2018-12-23T08:32:00.734Z,21.74
2018-12-23T08:33:10.750Z,21.71
2018-12-23T08:34:20.196Z,21.72
2018-12-23T08:35:29.380Z,21.74
2018-12-23T08:36:38.062Z,21.72
2018-12-23T08:37:49.563Z,21.71
2018-12-23T08:38:58.777Z,21.67
2018-12-23T08:40:07.970Z,21.74
2018-12-23T08:41:17.421Z,21.65
2018-12-23T08:42:26.878Z,21.79
2018-12-23T08:43:36.073Z,21.67
2018-12-23T08:44:44.999Z,21.67
2018-12-23T08:45:54.205Z,21.72
2018-12-23T08:47:03.880Z,21.71
2018-12-23T08:48:13.557Z,21.65
2018-12-23T08:49:22.487Z,21.69
2018-12-23T08:50:31.680Z,21.72
2018-12-23T08:51:41.108Z,21.72
2018-12-23T08:52:50.934Z,21.62
2018-12-23T08:54:00.456Z,21.72
2018-12-23T08:55:09.902Z,21.72
2018-12-23T08:56:19.830Z,21.74
2018-12-23T08:57:29.252Z,21.67
2018-12-23T08:58:40.677Z,21.67
2018-12-23T08:59:49.849Z,21.64
2018-12-23T09:00:59.071Z,21.62
2018-12-23T09:02:08.757Z,21.68
2018-12-23T09:03:23.528Z,21.72
2018-12-23T09:04:32.724Z,21.74
2018-12-23T09:05:41.915Z,21.71
2018-12-23T09:06:51.375Z,21.64
2018-12-23T09:08:00.579Z,21.72
2018-12-23T09:09:10.054Z,21.61
2018-12-23T09:10:18.998Z,21.65
2018-12-23T09:11:28.426Z,21.77
2018-12-23T09:12:37.855Z,21.74
2018-12-23T09:13:46.772Z,21.65
2018-12-23T09:14:56.199Z,21.69
2018-12-23T09:16:05.402Z,21.77
2018-12-23T09:17:15.332Z,21.68
2018-12-23T09:18:24.273Z,21.68
2018-12-23T09:19:33.724Z,21.71
2018-12-23T09:20:42.669Z,21.72
2018-12-23T09:21:51.848Z,21.62
2018-12-23T09:23:01.274Z,21.69
2018-12-23T09:24:10.704Z,21.71
2018-12-23T09:25:20.394Z,21.69
2018-12-23T09:26:29.817Z,21.68
2018-12-23T09:27:39.526Z,21.75
2018-12-23T09:28:48.445Z,21.74
2018-12-23T09:29:57.385Z,21.75
2018-12-23T09:31:06.328Z,21.67
2018-12-23T09:32:15.511Z,21.61
2018-12-23T09:33:24.712Z,21.65
2018-12-23T09:34:33.892Z,21.71
2018-12-23T09:35:43.079Z,21.68
2018-12-23T09:36:52.522Z,21.72
2018-12-23T09:38:06.294Z,21.68
2018-12-23T09:39:15.224Z,21.65
2018-12-23T09:40:24.411Z,21.71
2018-12-23T09:41:34.192Z,21.71
2018-12-23T09:42:43.867Z,21.72
2018-12-23T09:43:53.027Z,21.69
2018-12-23T09:45:02.217Z,21.75
2018-12-23T09:46:11.641Z,21.69
2018-12-23T09:47:21.081Z,21.65
2018-12-23T09:48:30.021Z,21.74
2018-12-23T09:49:39.199Z,21.72
2018-12-23T09:50:48.643Z,21.69
2018-12-23T09:51:58.351Z,21.68
2018-12-23T09:53:07.298Z,21.71
2018-12-23T09:54:16.490Z,21.74
2018-12-23T09:55:25.925Z,21.72
2018-12-23T09:56:34.647Z,21.74
2018-12-23T09:57:44.209Z,21.75
2018-12-23T09:58:53.418Z,21.71
2018-12-23T10:00:02.852Z,21.67
2018-12-23T10:01:12.844Z,21.68
2018-12-23T10:02:21.785Z,21.69
2018-12-23T10:03:30.984Z,21.69
2018-12-23T10:04:39.938Z,21.68
2018-12-23T10:05:49.377Z,21.71
2018-12-23T10:06:59.313Z,21.68
2018-12-23T10:08:14.781Z,21.74
2018-12-23T10:09:24.208Z,21.69
2018-12-23T10:10:33.724Z,21.75
2018-12-23T10:11:43.182Z,21.71
2018-12-23T10:12:52.883Z,21.71
2018-12-23T10:14:02.056Z,21.68
2018-12-23T10:15:11.487Z,21.69
2018-12-23T10:16:20.650Z,21.65
2018-12-23T10:17:30.098Z,21.69
2018-12-23T10:18:39.559Z,21.61
2018-12-23T10:19:48.752Z,21.71
2018-12-23T10:20:58.191Z,21.69
2018-12-23T10:22:07.394Z,21.75
2018-12-23T10:23:16.830Z,21.62
2018-12-23T10:24:26.016Z,21.67
2018-12-23T10:25:34.951Z,21.69
2018-12-23T10:26:44.363Z,21.69
2018-12-23T10:27:53.802Z,21.61
2018-12-23T10:29:03.011Z,21.71
2018-12-23T10:30:12.215Z,21.72
2018-12-23T10:31:21.878Z,21.72
2018-12-23T10:32:31.091Z,21.68
2018-12-23T10:33:40.533Z,21.8
2018-12-23T10:34:49.962Z,21.75
2018-12-23T10:35:59.657Z,21.64
2018-12-23T10:37:08.939Z,21.82
2018-12-23T10:38:23.237Z,21.72
2018-12-23T10:39:32.413Z,21.74
2018-12-23T10:40:41.613Z,21.68
2018-12-23T10:41:51.029Z,21.74
2018-12-23T10:43:01.318Z,21.79
2018-12-23T10:44:10.629Z,21.69
2018-12-23T10:45:20.321Z,21.72
2018-12-23T10:46:29.511Z,21.8
2018-12-23T10:47:38.696Z,21.71
2018-12-23T10:48:48.385Z,21.72
2018-12-23T10:49:57.567Z,21.74
2018-12-23T10:51:07.019Z,21.72
2018-12-23T10:52:16.215Z,21.71
2018-12-23T10:53:25.169Z,21.68
2018-12-23T10:54:36.162Z,21.69
2018-12-23T10:55:45.986Z,21.71
2018-12-23T10:56:55.437Z,21.72
2018-12-23T10:58:04.399Z,21.74
2018-12-23T10:59:14.321Z,21.75
2018-12-23T11:00:23.770Z,21.69
2018-12-23T11:01:33.205Z,21.79
2018-12-23T11:02:42.904Z,21.72
2018-12-23T11:03:52.593Z,21.61
2018-12-23T11:05:01.528Z,21.69
2018-12-23T11:06:10.961Z,21.72
2018-12-23T11:07:20.394Z,21.71
2018-12-23T11:08:31.626Z,21.65
2018-12-23T11:09:40.808Z,21.79
2018-12-23T11:10:50.731Z,21.71
2018-12-23T11:11:59.905Z,21.75
2018-12-23T11:13:09.351Z,21.62
2018-12-23T11:14:18.800Z,21.69
2018-12-23T11:15:28.008Z,21.75
2018-12-23T11:16:37.675Z,21.69
2018-12-23T11:17:46.862Z,21.67
2018-12-23T11:18:56.036Z,21.67
2018-12-23T11:20:05.488Z,21.67
2018-12-23T11:21:14.430Z,21.68
2018-12-23T11:22:24.104Z,21.72
2018-12-23T11:23:33.548Z,21.74
2018-12-23T11:24:42.486Z,21.74
2018-12-23T11:25:51.932Z,21.79
2018-12-23T11:27:00.881Z,21.69
2018-12-23T11:28:09.823Z,21.69
2018-12-23T11:29:19.015Z,21.77
2018-12-23T11:30:27.971Z,21.67
2018-12-23T11:31:37.662Z,21.71
2018-12-23T11:32:47.587Z,21.74
2018-12-23T11:33:57.024Z,21.67
2018-12-23T11:35:06.954Z,21.67
2018-12-23T11:36:15.883Z,21.79
2018-12-23T11:37:25.328Z,21.71
2018-12-23T11:38:40.447Z,21.65
2018-12-23T11:39:50.399Z,21.72
2018-12-23T11:40:59.838Z,21.71
2018-12-23T11:42:08.889Z,21.77
2018-12-23T11:43:18.065Z,21.58
2018-12-23T11:44:26.742Z,21.72
2018-12-23T11:45:36.199Z,21.67
2018-12-23T11:46:45.160Z,21.74
2018-12-23T11:47:54.362Z,21.72
2018-12-23T11:49:03.884Z,21.71
2018-12-23T11:50:13.079Z,21.69
2018-12-23T11:51:22.503Z,21.67
2018-12-23T11:52:31.713Z,21.71
2018-12-23T11:53:41.156Z,21.71
2018-12-23T11:54:50.375Z,21.65
2018-12-23T11:55:59.560Z,21.79
2018-12-23T11:57:08.495Z,21.72
2018-12-23T11:58:18.168Z,21.65
2018-12-23T11:59:27.846Z,21.68
2018-12-23T12:00:39.287Z,21.71
2018-12-23T12:01:48.990Z,21.69
2018-12-23T12:02:58.523Z,21.71
2018-12-23T12:04:07.694Z,21.64
2018-12-23T12:05:17.377Z,21.71
2018-12-23T12:06:26.581Z,21.68
2018-12-23T12:07:36.253Z,21.71
2018-12-23T12:08:48.476Z,21.64
2018-12-23T12:09:57.645Z,21.71
2018-12-23T12:11:07.123Z,21.68
2018-12-23T12:12:16.124Z,21.61
2018-12-23T12:13:25.560Z,21.69
2018-12-23T12:14:34.748Z,21.69
2018-12-23T12:15:43.945Z,21.72
2018-12-23T12:16:53.114Z,21.65
2018-12-23T12:18:02.799Z,21.65
2018-12-23T12:19:12.482Z,21.68
2018-12-23T12:20:21.165Z,21.65
2018-12-23T12:21:30.855Z,21.68
2018-12-23T12:22:41.295Z,21.71
2018-12-23T12:23:50.366Z,21.71
2018-12-23T12:24:59.291Z,21.72
2018-12-23T12:26:09.004Z,21.71
2018-12-23T12:27:18.169Z,21.72
2018-12-23T12:28:27.392Z,21.72
2018-12-23T12:29:36.366Z,21.65
2018-12-23T12:30:45.814Z,21.68
2018-12-23T12:31:55.541Z,21.62
2018-12-23T12:33:05.235Z,21.69
2018-12-23T12:34:14.924Z,21.68
2018-12-23T12:35:23.859Z,21.68
2018-12-23T12:36:33.328Z,21.64
2018-12-23T12:37:42.511Z,21.71
2018-12-23T12:38:56.783Z,21.68
2018-12-23T12:40:06.462Z,21.79
2018-12-23T12:41:15.645Z,21.67
2018-12-23T12:42:24.579Z,21.75
2018-12-23T12:43:33.751Z,21.68
2018-12-23T12:44:43.205Z,21.71
2018-12-23T12:46:00.286Z,21.71
2018-12-23T12:47:10.161Z,21.69
2018-12-23T12:48:20.109Z,21.71
2018-12-23T12:49:29.317Z,21.74
2018-12-23T12:50:38.518Z,21.62
2018-12-23T12:51:48.457Z,21.69
2018-12-23T12:52:57.893Z,21.67
2018-12-23T12:54:07.086Z,21.72
2018-12-23T12:55:16.516Z,21.72
2018-12-23T12:56:25.691Z,21.64
2018-12-23T12:57:34.614Z,21.68
2018-12-23T12:58:43.805Z,21.65
2018-12-23T12:59:53.491Z,21.65
2018-12-23T13:01:02.995Z,21.69
2018-12-23T13:02:12.702Z,21.65
2018-12-23T13:03:21.882Z,21.71
2018-12-23T13:04:31.307Z,21.69
2018-12-23T13:05:40.258Z,21.65
2018-12-23T13:06:49.195Z,21.64
2018-12-23T13:07:58.637Z,21.67
2018-12-23T13:09:08.094Z,21.72
2018-12-23T13:10:17.270Z,21.75
2018-12-23T13:11:26.724Z,21.72
2018-12-23T13:12:35.899Z,21.64
2018-12-23T13:13:45.326Z,21.71
2018-12-23T13:14:54.520Z,21.68
2018-12-23T13:16:03.712Z,21.77
2018-12-23T13:17:12.401Z,21.68
2018-12-23T13:18:22.092Z,21.74
2018-12-23T13:19:31.543Z,21.65
2018-12-23T13:20:40.712Z,21.65
2018-12-23T13:21:49.968Z,21.67
2018-12-23T13:22:59.421Z,21.64
2018-12-23T13:24:08.352Z,21.69
2018-12-23T13:25:17.526Z,21.65
2018-12-23T13:26:27.452Z,21.68
2018-12-23T13:27:36.410Z,21.64
2018-12-23T13:28:46.123Z,21.65
2018-12-23T13:29:55.330Z,21.67
2018-12-23T13:31:04.511Z,21.74
2018-12-23T13:32:13.689Z,21.64
2018-12-23T13:33:23.370Z,21.68
2018-12-23T13:34:33.039Z,21.65
2018-12-23T13:35:42.207Z,21.64
2018-12-23T13:36:51.652Z,21.64
2018-12-23T13:38:01.443Z,21.72
2018-12-23T13:39:13.815Z,21.67
2018-12-23T13:40:22.766Z,21.69
2018-12-23T13:41:32.451Z,21.68
2018-12-23T13:42:41.643Z,21.65
2018-12-23T13:43:50.822Z,21.68
2018-12-23T13:45:00.510Z,21.65
2018-12-23T13:46:10.285Z,21.65
2018-12-23T13:47:19.731Z,21.67
2018-12-23T13:48:28.686Z,21.65
2018-12-23T13:49:38.367Z,21.64
2018-12-23T13:50:47.291Z,21.65
2018-12-23T13:51:56.741Z,21.61
2018-12-23T13:53:06.170Z,21.67
2018-12-23T13:54:16.566Z,21.69
2018-12-23T13:55:25.850Z,21.64
2018-12-23T13:56:35.284Z,21.74
2018-12-23T13:57:45.222Z,21.67
2018-12-23T13:58:54.401Z,21.72
2018-12-23T14:00:03.831Z,21.68
2018-12-23T14:01:13.128Z,21.71
2018-12-23T14:02:22.607Z,21.71
2018-12-23T14:03:31.780Z,21.58
2018-12-23T14:04:41.478Z,21.65
2018-12-23T14:05:50.676Z,21.69
2018-12-23T14:06:59.860Z,21.67
2018-12-23T14:08:09.345Z,21.65
2018-12-23T14:09:21.959Z,21.65
2018-12-23T14:10:30.899Z,21.65
2018-12-23T14:11:40.341Z,21.65
2018-12-23T14:12:49.780Z,21.68
2018-12-23T14:13:59.335Z,21.69
2018-12-23T14:15:09.032Z,21.71
2018-12-23T14:16:18.002Z,21.67
2018-12-23T14:17:27.232Z,21.67
2018-12-23T14:18:36.913Z,21.68
2018-12-23T14:19:46.449Z,21.67
2018-12-23T14:20:55.902Z,21.65
2018-12-23T14:22:05.091Z,21.69
2018-12-23T14:23:14.305Z,21.67
2018-12-23T14:24:23.509Z,21.65
2018-12-23T14:25:32.958Z,21.67
2018-12-23T14:26:42.391Z,21.62
2018-12-23T14:27:51.573Z,21.65
2018-12-23T14:29:01.509Z,21.65
2018-12-23T14:30:10.799Z,21.74
2018-12-23T14:31:19.831Z,21.65
2018-12-23T14:32:29.520Z,21.65
2018-12-23T14:33:38.464Z,21.67
2018-12-23T14:34:47.656Z,21.69
2018-12-23T14:35:57.084Z,21.62
2018-12-23T14:37:06.627Z,21.64
2018-12-23T14:38:15.560Z,21.64
2018-12-23T14:39:33.010Z,21.64
2018-12-23T14:40:41.932Z,21.65
2018-12-23T14:41:51.138Z,21.67
2018-12-23T14:43:01.856Z,21.67
2018-12-23T14:44:11.277Z,21.65
2018-12-23T14:45:20.985Z,21.67
2018-12-23T14:46:30.181Z,21.69
2018-12-23T14:47:40.396Z,21.71
2018-12-23T14:48:49.669Z,21.67
2018-12-23T14:49:59.109Z,21.67
2018-12-23T14:51:08.293Z,21.65
2018-12-23T14:52:17.732Z,21.62
2018-12-23T14:53:27.406Z,21.68
2018-12-23T14:54:36.642Z,21.62
2018-12-23T14:55:45.565Z,21.65
2018-12-23T14:56:55.001Z,21.64